| time (UTC) | temp F | wind direction | speed MPH | gust MPH | rain 1hr in | rain 24hr in | rain mn in | humidity % | barometer mb |
| 20260903145003 | 72 | 74 | 1.0 | 9.0 | 0.00 | 0.55 | 0.19 | 95 | 1013.8 |
| 20260903144003 | 72 | 108 | 1.0 | 3.0 | 0.00 | 0.55 | 0.19 | 96 | 1013.9 |
| 20260903143213 | 71 | 105 | 1.0 | 4.0 | 0.00 | 0.55 | 0.19 | 96 | 1014.0 |
| 20260903142003 | 71 | 72 | 2.0 | 4.0 | 0.00 | 0.55 | 0.19 | 97 | 1014.1 |
| 20260903141003 | 70 | 100 | 2.0 | 6.0 | 0.00 | 0.55 | 0.19 | 97 | 1014.3 |
| 20260903140003 | 70 | 100 | 2.0 | 4.0 | 0.00 | 0.55 | 0.19 | 97 | 1014.4 |
| 20260903135213 | 70 | 80 | 2.0 | 4.0 | 0.00 | 0.55 | 0.19 | 98 | 1014.2 |
| 20260903134003 | 70 | 76 | 1.0 | 3.0 | 0.00 | 0.55 | 0.19 | 98 | 1014.3 |
| 20260903133003 | 70 | 83 | 1.0 | 2.0 | 0.00 | 0.55 | 0.19 | 98 | 1014.0 |
| 20260903132003 | 70 | 80 | 1.0 | 4.0 | 0.00 | 0.55 | 0.19 | 98 | 1013.7 |
| 20260903131003 | 70 | 62 | 1.0 | 6.0 | 0.00 | 0.55 | 0.19 | 98 | 1013.8 |
| 20260903130003 | 70 | 124 | 1.0 | 3.0 | 0.00 | 0.55 | 0.19 | 98 | 1013.7 |
| 20260903125212 | 69 | 127 | 1.0 | 3.0 | 0.00 | 0.55 | 0.19 | 98 | 1013.8 |
| 20260903124003 | 69 | 136 | 1.0 | 3.0 | 0.00 | 0.55 | 0.19 | 98 | 1014.0 |
| 20260903123003 | 68 | 136 | 0.0 | 2.0 | 0.00 | 0.55 | 0.19 | 98 | 1013.9 |
| 20260903122003 | 69 | 137 | 1.0 | 3.0 | 0.00 | 0.55 | 0.19 | 98 | 1013.7 |
| 20260903121003 | 68 | 140 | 0.0 | 3.0 | 0.00 | 0.55 | 0.19 | 98 | 1013.7 |
| 20260903120003 | 68 | 140 | 0.0 | 2.0 | 0.00 | 0.55 | 0.19 | 98 | 1013.5 |
| 20260903115003 | 68 | 140 | 0.0 | 2.0 | 0.00 | 0.55 | 0.19 | 98 | 1013.4 |
| 20260903114003 | 68 | 140 | 0.0 | 2.0 | 0.00 | 0.55 | 0.19 | 98 | 1013.5 |
| 20260903113214 | 68 | 140 | 0.0 | 2.0 | 0.00 | 0.55 | 0.19 | 98 | 1013.4 |
| 20260903112003 | 68 | 152 | 1.0 | 3.0 | 0.00 | 0.55 | 0.19 | 98 | 1013.0 |
| 20260903111003 | 68 | 154 | 1.0 | 2.0 | 0.00 | 0.55 | 0.19 | 97 | 1012.9 |
| 20260903110003 | 68 | 154 | 0.0 | 1.0 | 0.00 | 0.55 | 0.19 | 97 | 1012.8 |
| 20260903105213 | 68 | 154 | 0.0 | 2.0 | 0.00 | 0.55 | 0.19 | 97 | 1012.7 |
| 20260903104004 | 68 | 154 | 0.0 | 2.0 | 0.00 | 0.55 | 0.19 | 98 | 1013.2 |
| 20260903103003 | 68 | 154 | 0.0 | 2.0 | 0.01 | 0.55 | 0.19 | 98 | 1014.2 |
| 20260903102003 | 68 | 154 | 1.0 | 3.0 | 0.01 | 0.55 | 0.19 | 98 | 1013.8 |
| 20260903101003 | 68 | 163 | 1.0 | 4.0 | 0.01 | 0.55 | 0.19 | 98 | 1014.7 |
| 20260903100003 | 68 | 171 | 1.0 | 2.0 | 0.02 | 0.55 | 0.19 | 98 | 1014.7 |
| 20260903095003 | 68 | 171 | 0.0 | 1.0 | 0.02 | 0.55 | 0.19 | 98 | 1014.7 |
| 20260903094003 | 68 | 171 | 0.0 | 2.0 | 0.02 | 0.55 | 0.19 | 98 | 1014.0 |
| 20260903093213 | 68 | 171 | 0.0 | 2.0 | 0.01 | 0.54 | 0.18 | 98 | 1013.8 |
| 20260903092003 | 67 | 171 | 0.0 | 2.0 | 0.01 | 0.54 | 0.18 | 98 | 1013.9 |
| 20260903091003 | 67 | 171 | 0.0 | 1.0 | 0.01 | 0.54 | 0.18 | 98 | 1014.1 |
| 20260903090213 | 67 | 0 | 0.0 | 0.0 | 0.00 | 0.53 | 0.17 | 98 | 1013.7 |
| 20260903085003 | 67 | 171 | 0.0 | 1.0 | 0.00 | 0.53 | 0.17 | 98 | 1013.6 |
| 20260903084213 | 67 | 171 | 0.0 | 1.0 | 0.00 | 0.53 | 0.17 | 97 | 1013.2 |
| 20260903083003 | 67 | 171 | 0.0 | 2.0 | 0.00 | 0.53 | 0.17 | 97 | 1013.4 |
| 20260903082003 | 67 | 171 | 0.0 | 1.0 | 0.00 | 0.53 | 0.17 | 97 | 1013.6 |
| 20260903081003 | 67 | 171 | 0.0 | 2.0 | 0.00 | 0.53 | 0.17 | 97 | 1013.7 |
| 20260903080004 | 67 | 173 | 1.0 | 2.0 | 0.00 | 0.53 | 0.17 | 97 | 1014.0 |
| 20260903075003 | 66 | 180 | 0.0 | 2.0 | 0.01 | 0.53 | 0.17 | 97 | 1014.4 |
| 20260903074003 | 66 | 180 | 0.0 | 1.0 | 0.02 | 0.53 | 0.17 | 97 | 1014.3 |
| 20260903073003 | 67 | 181 | 0.0 | 2.0 | 0.04 | 0.53 | 0.17 | 97 | 1014.3 |
| 20260903072003 | 67 | 182 | 0.0 | 1.0 | 0.07 | 0.53 | 0.17 | 97 | 1014.3 |
| 20260903071003 | 67 | 174 | 0.0 | 2.0 | 0.08 | 0.53 | 0.17 | 97 | 1014.2 |
| 20260903070003 | 67 | 153 | 1.0 | 1.0 | 0.09 | 0.53 | 0.17 | 97 | 1014.0 |
| 20260903065003 | 67 | 153 | 0.0 | 2.0 | 0.09 | 0.52 | 0.16 | 97 | 1014.4 |
| 20260903064003 | 67 | 153 | 0.0 | 1.0 | 0.09 | 0.51 | 0.15 | 97 | 1014.6 |
| 20260903063003 | 67 | 153 | 1.0 | 2.0 | 0.08 | 0.49 | 0.13 | 97 | 1015.0 |
| 20260903062214 | 67 | 153 | 0.0 | 1.0 | 0.06 | 0.47 | 0.11 | 97 | 1016.0 |
| 20260903061003 | 67 | 153 | 0.0 | 2.0 | 0.04 | 0.45 | 0.09 | 97 | 1015.4 |
| 20260903060003 | 67 | 153 | 0.0 | 2.0 | 0.04 | 0.44 | 0.08 | 97 | 1015.0 |
| 20260903055003 | 67 | 153 | 0.0 | 1.0 | 0.05 | 0.43 | 0.07 | 97 | 1015.0 |
| 20260903054003 | 67 | 153 | 0.0 | 1.0 | 0.04 | 0.42 | 0.06 | 97 | 1015.6 |
| 20260903053213 | 67 | 153 | 0.0 | 1.0 | 0.03 | 0.41 | 0.05 | 97 | 1015.5 |
| 20260903052003 | 67 | 153 | 0.0 | 1.0 | 0.04 | 0.41 | 0.05 | 97 | 1015.7 |
| 20260903051003 | 67 | 153 | 0.0 | 1.0 | 0.04 | 0.41 | 0.05 | 97 | 1015.4 |
| 20260903050003 | 67 | 0 | 0.0 | 0.0 | 0.04 | 0.40 | 0.04 | 97 | 1015.8 |
| 20260903045003 | 67 | 189 | 1.0 | 2.0 | 0.03 | 0.38 | 0.02 | 97 | 1015.5 |
| 20260903044003 | 67 | 253 | 0.0 | 2.0 | 0.05 | 0.38 | 0.02 | 96 | 1016.0 |
| 20260903043003 | 67 | 253 | 0.0 | 2.0 | 0.06 | 0.38 | 0.02 | 96 | 1016.0 |
| 20260903042003 | 67 | 251 | 1.0 | 2.0 | 0.05 | 0.37 | 0.01 | 96 | 1016.0 |
| 20260903041003 | 67 | 239 | 0.0 | 2.0 | 0.12 | 0.37 | 0.01 | 96 | 1015.7 |
| 20260903040004 | 67 | 239 | 0.0 | 1.0 | 0.21 | 0.36 | 0.00 | 96 | 1015.4 |
| 20260903035003 | 67 | 0 | 0.0 | 0.0 | 0.28 | 0.35 | 0.35 | 96 | 1016.4 |
| 20260903034003 | 68 | 239 | 0.0 | 1.0 | 0.29 | 0.33 | 0.33 | 96 | 1016.8 |
| 20260903033003 | 68 | 239 | 0.0 | 1.0 | 0.29 | 0.32 | 0.32 | 96 | 1017.0 |
| 20260903032213 | 68 | 239 | 0.0 | 4.0 | 0.30 | 0.32 | 0.32 | 95 | 1016.6 |
| 20260903031003 | 68 | 249 | 3.0 | 13.0 | 0.23 | 0.25 | 0.25 | 94 | 1017.5 |
| 20260903030003 | 69 | 279 | 6.0 | 18.0 | 0.13 | 0.15 | 0.16 | 94 | 1018.8 |
| 20260903025003 | 70 | 45 | 0.0 | 3.0 | 0.05 | 0.07 | 0.07 | 96 | 1018.8 |
| 20260903024003 | 70 | 58 | 0.0 | 3.0 | 0.02 | 0.04 | 0.04 | 95 | 1016.3 |
| 20260903023003 | 70 | 48 | 0.0 | 2.0 | 0.01 | 0.03 | 0.03 | 95 | 1016.1 |
| 20260903022003 | 70 | 70 | 1.0 | 5.0 | 0.00 | 0.02 | 0.02 | 95 | 1015.7 |
| 20260903021003 | 70 | 257 | 0.0 | 4.0 | 0.00 | 0.02 | 0.02 | 95 | 1015.5 |
| 20260903020003 | 70 | 310 | 0.0 | 3.0 | 0.00 | 0.02 | 0.02 | 95 | 1015.6 |
| 20260903015003 | 70 | 355 | 0.0 | 1.0 | 0.00 | 0.02 | 0.02 | 95 | 1016.0 |
| 20260903014003 | 70 | 355 | 0.0 | 3.0 | 0.00 | 0.02 | 0.02 | 94 | 1016.4 |
| 20260903013003 | 71 | 356 | 0.0 | 2.0 | 0.00 | 0.02 | 0.02 | 95 | 1016.0 |
| 20260903012214 | 71 | 355 | 0.0 | 3.0 | 0.00 | 0.02 | 0.02 | 94 | 1016.1 |
| 20260903011003 | 71 | 354 | 0.0 | 3.0 | 0.00 | 0.02 | 0.02 | 94 | 1015.8 |
| 20260903010214 | 71 | 0 | 0.0 | 0.0 | 0.00 | 0.02 | 0.02 | 95 | 1015.6 |
| 20260903005003 | 71 | 309 | 0.0 | 1.0 | 0.00 | 0.02 | 0.02 | 95 | 1015.1 |
| 20260903004003 | 71 | 311 | 0.0 | 4.0 | 0.00 | 0.02 | 0.02 | 94 | 1015.1 |
| 20260903003003 | 71 | 0 | 0.0 | 0.0 | 0.00 | 0.02 | 0.02 | 95 | 1015.1 |
| 20260903002003 | 71 | 0 | 0.0 | 0.0 | 0.00 | 0.02 | 0.02 | 95 | 1015.0 |
| 20260903001003 | 71 | 0 | 0.0 | 0.0 | 0.00 | 0.02 | 0.02 | 95 | 1015.3 |
| 20260903000003 | 72 | 0 | 0.0 | 0.0 | 0.00 | 0.02 | 0.02 | 95 | 1015.4 |
| 20260902235003 | 72 | 0 | 0.0 | 0.0 | 0.00 | 0.02 | 0.02 | 95 | 1015.4 |
| 20260902234003 | 72 | 0 | 0.0 | 0.0 | 0.00 | 0.02 | 0.02 | 94 | 1015.2 |
| 20260902233003 | 72 | 0 | 0.0 | 0.0 | 0.00 | 0.02 | 0.02 | 94 | 1015.0 |
| 20260902232003 | 72 | 0 | 0.0 | 0.0 | 0.00 | 0.02 | 0.02 | 94 | 1014.8 |
| 20260902231003 | 72 | 0 | 0.0 | 0.0 | 0.00 | 0.02 | 0.02 | 94 | 1014.7 |
| 20260902230003 | 73 | 0 | 0.0 | 0.0 | 0.00 | 0.02 | 0.02 | 94 | 1014.8 |
| 20260902225003 | 73 | 0 | 0.0 | 0.0 | 0.00 | 0.02 | 0.02 | 94 | 1014.9 |
| 20260902224003 | 73 | 0 | 0.0 | 0.0 | 0.00 | 0.02 | 0.02 | 94 | 1014.9 |
| 20260902223003 | 73 | 0 | 0.0 | 0.0 | 0.00 | 0.02 | 0.02 | 94 | 1015.1 |
| 20260902222004 | 74 | 0 | 0.0 | 0.0 | 0.00 | 0.02 | 0.02 | 94 | 1015.0 |
| 20260902221213 | 74 | 0 | 0.0 | 0.0 | 0.00 | 0.02 | 0.02 | 93 | 1015.2 |
| 20260902220003 | 74 | 0 | 0.0 | 0.0 | 0.00 | 0.02 | 0.02 | 94 | 1015.3 |
| 20260902215213 | 75 | 0 | 0.0 | 0.0 | 0.00 | 0.02 | 0.02 | 93 | 1015.3 |
| 20260902214003 | 75 | 0 | 0.0 | 0.0 | 0.00 | 0.02 | 0.02 | 93 | 1015.4 |
| 20260902213003 | 75 | 0 | 0.0 | 0.0 | 0.00 | 0.02 | 0.02 | 93 | 1015.4 |
| 20260902212003 | 75 | 318 | 0.0 | 1.0 | 0.00 | 0.02 | 0.02 | 93 | 1015.5 |
| 20260902211003 | 75 | 327 | 0.0 | 4.0 | 0.00 | 0.02 | 0.02 | 93 | 1015.4 |
| 20260902210214 | 74 | 0 | 0.0 | 0.0 | 0.00 | 0.02 | 0.02 | 94 | 1015.4 |
| 20260902205003 | 74 | 0 | 0.0 | 0.0 | 0.00 | 0.02 | 0.02 | 94 | 1015.5 |
| 20260902204003 | 74 | 0 | 0.0 | 0.0 | 0.00 | 0.02 | 0.02 | 94 | 1015.4 |
| 20260902203214 | 74 | 0 | 0.0 | 0.0 | 0.00 | 0.02 | 0.02 | 94 | 1015.2 |
| 20260902202003 | 74 | 0 | 0.0 | 0.0 | 0.00 | 0.02 | 0.02 | 94 | 1015.5 |
| 20260902201003 | 75 | 0 | 0.0 | 2.0 | 0.00 | 0.02 | 0.02 | 93 | 1015.6 |
| 20260902200214 | 75 | 52 | 0.0 | 3.0 | 0.00 | 0.02 | 0.02 | 94 | 1015.6 |
| 20260902195003 | 74 | 54 | 0.0 | 2.0 | 0.00 | 0.02 | 0.02 | 94 | 1016.0 |
| 20260902194003 | 74 | 0 | 0.0 | 0.0 | 0.00 | 0.02 | 0.02 | 95 | 1015.9 |
| 20260902193214 | 74 | 0 | 0.0 | 0.0 | 0.00 | 0.02 | 0.02 | 95 | 1015.9 |
| 20260902192004 | 73 | 68 | 0.0 | 2.0 | 0.00 | 0.02 | 0.02 | 94 | 1016.1 |
| 20260902191003 | 74 | 67 | 0.0 | 2.0 | 0.00 | 0.02 | 0.02 | 95 | 1016.2 |
| 20260902190214 | 74 | 52 | 0.0 | 3.0 | 0.00 | 0.02 | 0.02 | 94 | 1016.4 |
| 20260902185003 | 74 | 7 | 1.0 | 2.0 | 0.00 | 0.02 | 0.02 | 94 | 1016.2 |
| 20260902184003 | 73 | 11 | 0.0 | 2.0 | 0.00 | 0.02 | 0.02 | 94 | 1015.9 |
| 20260902183003 | 73 | 11 | 1.0 | 3.0 | 0.00 | 0.02 | 0.02 | 95 | 1016.0 |
| 20260902182004 | 72 | 21 | 0.0 | 3.0 | 0.00 | 0.02 | 0.02 | 96 | 1016.2 |
| 20260902181003 | 72 | 19 | 1.0 | 4.0 | 0.00 | 0.02 | 0.02 | 97 | 1016.5 |
| 20260902180005 | 71 | 358 | 1.0 | 4.0 | 0.00 | 0.02 | 0.02 | 97 | 1016.9 |
| 20260902175003 | 71 | 324 | 0.0 | 2.0 | 0.00 | 0.02 | 0.02 | 97 | 1017.0 |
| 20260902174003 | 71 | 324 | 0.0 | 2.0 | 0.00 | 0.02 | 0.02 | 97 | 1017.0 |
| 20260902173003 | 71 | 322 | 0.0 | 2.0 | 0.00 | 0.02 | 0.02 | 97 | 1017.3 |
| 20260902172004 | 71 | 321 | 0.0 | 2.0 | 0.00 | 0.02 | 0.02 | 97 | 1017.2 |
| 20260902171003 | 71 | 321 | 0.0 | 1.0 | 0.00 | 0.02 | 0.02 | 97 | 1017.3 |
| 20260902170213 | 71 | 321 | 0.0 | 2.0 | 0.00 | 0.02 | 0.02 | 97 | 1017.5 |
| 20260902165003 | 70 | 321 | 0.0 | 2.0 | 0.01 | 0.02 | 0.02 | 97 | 1017.3 |
| 20260902164003 | 70 | 321 | 0.0 | 2.0 | 0.01 | 0.02 | 0.02 | 96 | 1017.2 |
| 20260902163003 | 70 | 320 | 0.0 | 1.0 | 0.02 | 0.02 | 0.02 | 97 | 1017.1 |
| 20260902162003 | 71 | 8 | 1.0 | 3.0 | 0.02 | 0.02 | 0.02 | 97 | 1017.2 |
| 20260902161003 | 71 | 55 | 0.0 | 3.0 | 0.02 | 0.02 | 0.02 | 97 | 1016.9 |
| 20260902160005 | 71 | 0 | 0.0 | 0.0 | 0.02 | 0.02 | 0.02 | 97 | 1017.5 |
| 20260902155003 | 71 | 10 | 1.0 | 2.0 | 0.01 | 0.01 | 0.01 | 97 | 1017.3 |
| 20260902154003 | 71 | 10 | 0.0 | 2.0 | 0.01 | 0.01 | 0.01 | 97 | 1017.2 |
| 20260902153003 | 71 | 11 | 0.0 | 3.0 | 0.00 | 0.00 | 0.00 | 97 | 1017.3 |
| 20260902152003 | 71 | 11 | 1.0 | 4.0 | 0.00 | 0.00 | 0.00 | 97 | 1017.3 |
| 20260902151214 | 71 | 356 | 0.0 | 4.0 | 0.00 | 0.00 | 0.00 | 97 | 1017.4 |
| 20260902150003 | 71 | 340 | 0.0 | 4.0 | 0.00 | 0.00 | 0.00 | 97 | 1017.2 |